Terminal Aerodrome Forecast
Issued by NWS Blacksburg, VA

Home | Current Version | Previous Version | Text Only | Print | Product List | Glossary On
Versions: 1 2 3 4 5 6 7 8 9 10 11 12 13 14 15 16 17 18 19 20 21 22 23 24 25 26 27 28 29 30 31 32 33 34 35 36 37 38 39 40 41 42 43 44 45 46 47 48
000
FTUS41 KRNK 200520
TAFBLF
TAF
KBLF 200520Z 2006/2106 11005KT P6SM OVC008
      TEMPO 2006/2008 2SM -DZ BR OVC030
     FM200800 29010G18KT 5SM -DZ BR OVC008
     FM201100 31012G21KT 2SM -SHSN OVC012
     FM201500 31015G26KT 5SM -SHSN OVC008
     FM201800 31015G28KT P6SM -SHSN OVC025
     FM210300 30013KT P6SM BKN040=

USA.gov is the U.S. government's official web portal to all federal, state and local government web resources and services.